createdAt,value
2022-10-19T00:01:07.539Z,102044.06
2022-10-19T00:03:36.059Z,102044.06
2022-10-19T00:06:18.467Z,102038.91
2022-10-19T00:08:45.753Z,102041.59
2022-10-19T00:11:13.432Z,102045.91
2022-10-19T00:13:40.758Z,102057.44
2022-10-19T00:16:11.607Z,102052.91
2022-10-19T00:18:39.131Z,102062.56
2022-10-19T00:21:07.584Z,102054.63
2022-10-19T00:23:34.889Z,102053.81
2022-10-19T00:26:02.240Z,102053.78
2022-10-19T00:28:29.523Z,102051.09
2022-10-19T00:30:57.135Z,102062.44
2022-10-19T00:33:24.552Z,102060.66
2022-10-19T00:35:52.943Z,102051.81
2022-10-19T00:38:21.630Z,102048.31
2022-10-19T00:40:49.483Z,102039.56
2022-10-19T00:43:22.037Z,102043.97
2022-10-19T00:45:49.445Z,102048.31
2022-10-19T00:48:25.711Z,102049.25
2022-10-19T00:50:54.543Z,102038.69
2022-10-19T00:53:21.941Z,102031.59
2022-10-19T00:55:49.253Z,102032.47
2022-10-19T00:58:16.518Z,102034.31
2022-10-19T01:00:43.727Z,102036.06
2022-10-19T01:03:11.957Z,102029.00
2022-10-19T01:05:39.194Z,102032.47
2022-10-19T01:08:07.547Z,102030.78
2022-10-19T01:11:06.456Z,102027.38
2022-10-19T01:13:56.211Z,102028.19
2022-10-19T01:16:49.836Z,102026.47
2022-10-19T01:19:40.243Z,102029.06
2022-10-19T01:22:36.326Z,102032.47
2022-10-19T01:25:36.495Z,102023.59
2022-10-19T01:28:11.642Z,102030.59
2022-10-19T01:31:03.336Z,102023.47
2022-10-19T01:33:38.428Z,102019.97
2022-10-19T01:36:16.708Z,102027.88
2022-10-19T01:38:57.835Z,102023.41
2022-10-19T01:41:35.366Z,102025.16
2022-10-19T01:44:14.349Z,102030.38
2022-10-19T01:46:45.120Z,102027.78
2022-10-19T01:49:16.511Z,102020.78
2022-10-19T01:51:47.767Z,102030.53
2022-10-19T01:54:16.917Z,102021.75
2022-10-19T01:56:45.839Z,102023.66
2022-10-19T01:59:13.370Z,102020.22
2022-10-19T02:01:43.969Z,102009.91
2022-10-19T02:04:12.598Z,102020.72
2022-10-19T02:06:39.993Z,102011.91
2022-10-19T02:09:07.342Z,102002.94
2022-10-19T02:11:35.535Z,102005.53
2022-10-19T02:14:07.604Z,101996.66
2022-10-19T02:16:39.937Z,102000.06
2022-10-19T02:19:08.670Z,101995.72
2022-10-19T02:21:35.925Z,101997.31
2022-10-19T02:24:03.058Z,102001.81
2022-10-19T02:26:30.321Z,102002.66
2022-10-19T02:28:57.534Z,102005.19
2022-10-19T02:31:25.083Z,102009.66
2022-10-19T02:33:52.442Z,102008.78
2022-10-19T02:36:19.595Z,102005.13
2022-10-19T02:38:46.782Z,102004.25
2022-10-19T02:41:28.508Z,102007.75
2022-10-19T02:44:01.400Z,102001.75
2022-10-19T02:46:42.705Z,102015.16
2022-10-19T02:49:11.042Z,102002.84
2022-10-19T02:51:40.771Z,102001.84
2022-10-19T02:54:09.391Z,102004.38
2022-10-19T02:56:36.601Z,101999.06
2022-10-19T02:59:04.375Z,102002.66
2022-10-19T03:01:31.546Z,102004.44
2022-10-19T03:03:58.771Z,102004.44
2022-10-19T03:06:25.941Z,102004.56
2022-10-19T03:08:53.086Z,102011.50
2022-10-19T03:11:20.267Z,102013.25
2022-10-19T03:16:19.509Z,102014.94
2022-10-19T03:18:49.095Z,102017.50
2022-10-19T03:21:16.312Z,102015.75
2022-10-19T03:23:43.439Z,102020.16
2022-10-19T03:26:14.398Z,102022.72
2022-10-19T03:28:42.427Z,102022.03
2022-10-19T03:31:09.869Z,102016.81
2022-10-19T03:33:37.012Z,102016.72
2022-10-19T03:36:34.574Z,102020.34
2022-10-19T03:39:04.675Z,102029.16
2022-10-19T03:41:34.207Z,102034.50
2022-10-19T03:44:01.462Z,102039.72
2022-10-19T03:46:28.667Z,102029.84
2022-10-19T03:48:55.802Z,102034.22
2022-10-19T03:51:25.787Z,102034.28
2022-10-19T03:53:54.487Z,102041.31
2022-10-19T03:56:23.576Z,102050.31
2022-10-19T03:58:51.851Z,102047.53
2022-10-19T04:01:21.495Z,102046.66
2022-10-19T04:03:52.822Z,102058.03
2022-10-19T04:06:22.053Z,102050.91
2022-10-19T04:08:50.351Z,102060.59
2022-10-19T04:11:18.828Z,102054.47
2022-10-19T04:13:49.407Z,102070.25
2022-10-19T04:16:17.080Z,102064.97
2022-10-19T04:18:44.241Z,102065.88
2022-10-19T04:21:22.946Z,102068.56
2022-10-19T04:23:51.334Z,102064.09
2022-10-19T04:26:19.064Z,102065.94
2022-10-19T04:28:46.328Z,102058.06
2022-10-19T04:31:13.845Z,102066.06
2022-10-19T04:33:41.657Z,102068.59
2022-10-19T04:36:12.804Z,102060.75
2022-10-19T04:38:40.052Z,102071.38
2022-10-19T04:41:10.007Z,102063.41
2022-10-19T04:43:37.356Z,102067.78
2022-10-19T04:46:06.149Z,102068.78
2022-10-19T04:48:35.224Z,102067.13
2022-10-19T04:51:02.769Z,102074.19
2022-10-19T04:53:30.087Z,102076.88
2022-10-19T04:55:57.246Z,102075.03
2022-10-19T04:58:24.688Z,102076.78
2022-10-19T05:00:51.894Z,102076.69
2022-10-19T05:03:19.105Z,102072.13
2022-10-19T05:05:46.256Z,102069.50
2022-10-19T05:08:13.405Z,102074.66
2022-10-19T05:10:44.213Z,102083.50
2022-10-19T05:13:14.161Z,102075.56
2022-10-19T05:15:41.334Z,102085.22
2022-10-19T05:18:08.496Z,102077.34
2022-10-19T05:20:35.648Z,102084.38
2022-10-19T05:23:06.298Z,102083.53
2022-10-19T05:25:34.582Z,102087.00
2022-10-19T05:28:01.719Z,102088.88
2022-10-19T05:30:28.871Z,102087.22
2022-10-19T05:32:56.024Z,102090.72
2022-10-19T05:35:23.273Z,102101.38
2022-10-19T05:37:55.215Z,102096.03
2022-10-19T05:40:22.376Z,102099.50
2022-10-19T05:42:49.511Z,102093.34
2022-10-19T05:45:16.751Z,102103.00
2022-10-19T05:47:43.960Z,102100.41
2022-10-19T05:50:11.153Z,102107.38
2022-10-19T05:52:38.305Z,102104.78
2022-10-19T05:55:05.913Z,102110.19
2022-10-19T05:57:33.776Z,102105.63
2022-10-19T06:00:01.116Z,102107.25
2022-10-19T06:02:28.294Z,102110.81
2022-10-19T06:04:55.429Z,102107.25
2022-10-19T06:07:22.649Z,102114.19
2022-10-19T06:09:49.800Z,102109.72
2022-10-19T06:12:22.861Z,102109.84
2022-10-19T06:14:52.170Z,102114.94
2022-10-19T06:17:19.385Z,102116.63
2022-10-19T06:19:46.528Z,102122.91
2022-10-19T06:22:13.688Z,102128.97
2022-10-19T06:24:40.851Z,102131.47
2022-10-19T06:27:08.167Z,102127.13
2022-10-19T06:29:36.067Z,102121.72
2022-10-19T06:32:03.215Z,102129.72
2022-10-19T06:34:30.488Z,102128.16
2022-10-19T06:36:57.700Z,102134.34
2022-10-19T06:39:24.887Z,102128.88
2022-10-19T06:41:52.199Z,102129.00
2022-10-19T06:44:19.567Z,102128.88
2022-10-19T06:46:46.738Z,102133.09
2022-10-19T06:49:14.568Z,102133.09
2022-10-19T06:51:41.928Z,102136.53
2022-10-19T06:54:09.066Z,102140.84
2022-10-19T06:56:36.352Z,102146.13
2022-10-19T06:59:03.665Z,102148.00
2022-10-19T07:01:30.999Z,102150.72
2022-10-19T07:03:58.177Z,102153.34
2022-10-19T07:06:27.791Z,102162.19
2022-10-19T07:08:55.027Z,102158.47
2022-10-19T07:11:22.749Z,102158.28
2022-10-19T07:13:50.204Z,102166.09
2022-10-19T07:16:21.329Z,102161.53
2022-10-19T07:18:50.084Z,102170.38
2022-10-19T07:21:18.339Z,102166.72
2022-10-19T07:23:47.368Z,102164.78
2022-10-19T07:26:17.197Z,102162.84
2022-10-19T07:28:46.955Z,102166.50
2022-10-19T07:31:17.900Z,102165.56
2022-10-19T07:33:45.383Z,102167.25
2022-10-19T07:36:13.872Z,102162.84
2022-10-19T07:38:41.385Z,102164.50
2022-10-19T07:41:12.675Z,102171.63
2022-10-19T07:43:40.426Z,102166.16
2022-10-19T07:46:10.486Z,102164.13
2022-10-19T07:48:37.889Z,102162.41
2022-10-19T07:51:07.043Z,102169.25
2022-10-19T07:53:34.684Z,102170.91
2022-10-19T07:56:07.056Z,102168.81
2022-10-19T07:58:34.523Z,102166.94
2022-10-19T08:01:03.361Z,102166.94
2022-10-19T08:04:14.329Z,102160.41
2022-10-19T08:06:19.183Z,102163.69
2022-10-19T08:08:47.794Z,102159.31
2022-10-19T08:11:35.646Z,102166.97
2022-10-19T08:14:03.586Z,102181.84
2022-10-19T08:16:42.064Z,102176.84
2022-10-19T08:19:12.536Z,102183.47
2022-10-19T08:21:41.489Z,102186.91
2022-10-19T08:24:09.029Z,102184.03
2022-10-19T08:26:38.225Z,102190.22
2022-10-19T08:29:13.439Z,102197.44
2022-10-19T08:31:40.994Z,102193.34
2022-10-19T08:34:12.012Z,102194.94
2022-10-19T08:36:39.433Z,102200.44
2022-10-19T08:39:08.778Z,102198.50
2022-10-19T08:44:42.817Z,102201.25
2022-10-19T08:47:47.802Z,102203.50
2022-10-19T08:50:23.650Z,102217.41
2022-10-19T08:52:55.346Z,102211.53
2022-10-19T08:55:39.180Z,102218.44
2022-10-19T08:58:32.314Z,102217.03
2022-10-19T09:01:11.487Z,102205.69
2022-10-19T09:03:54.805Z,102215.97
2022-10-19T09:06:50.306Z,102212.22
2022-10-19T09:09:19.486Z,102221.50
2022-10-19T09:11:53.090Z,102212.53
2022-10-19T09:14:38.758Z,102205.81
2022-10-19T09:17:17.136Z,102212.84
2022-10-19T09:19:44.402Z,102211.00
2022-10-19T09:22:28.444Z,102214.31
2022-10-19T09:25:00.534Z,102214.94
2022-10-19T09:27:39.251Z,102217.50
2022-10-19T09:30:21.240Z,102216.28
2022-10-19T09:32:50.651Z,102223.31
2022-10-19T09:35:34.191Z,102218.13
2022-10-19T09:38:01.597Z,102211.25
2022-10-19T09:40:30.681Z,102220.16
2022-10-19T09:42:59.146Z,102234.09
2022-10-19T09:46:09.622Z,102225.81
2022-10-19T09:48:51.956Z,102230.34
2022-10-19T09:51:19.751Z,102229.50
2022-10-19T09:53:51.502Z,102234.97
2022-10-19T09:56:21.236Z,102231.84
2022-10-19T09:58:50.552Z,102239.16
2022-10-19T10:01:41.715Z,102247.13
2022-10-19T10:04:16.061Z,102246.41
2022-10-19T10:06:44.823Z,102247.97
2022-10-19T10:09:21.418Z,102238.38
2022-10-19T10:11:50.682Z,102235.31
2022-10-19T10:14:22.637Z,102229.31
2022-10-19T10:16:56.170Z,102231.97
2022-10-19T10:19:28.659Z,102230.28
2022-10-19T10:21:57.825Z,102232.16
2022-10-19T10:24:27.246Z,102228.69
2022-10-19T10:27:05.773Z,102235.97
2022-10-19T10:29:35.141Z,102243.09
2022-10-19T10:32:20.588Z,102247.50
2022-10-19T10:34:53.841Z,102236.13
2022-10-19T10:37:41.531Z,102246.03
2022-10-19T10:40:23.950Z,102237.78
2022-10-19T10:42:53.625Z,102246.38
2022-10-19T10:45:29.551Z,102247.41
2022-10-19T10:47:57.870Z,102239.19
2022-10-19T10:50:34.592Z,102245.41
2022-10-19T10:53:30.926Z,102242.66
2022-10-19T10:55:58.329Z,102238.31
2022-10-19T10:58:47.864Z,102238.81
2022-10-19T11:01:23.136Z,102233.50
2022-10-19T11:04:14.413Z,102239.34
2022-10-19T11:06:51.799Z,102242.59
2022-10-19T11:09:36.194Z,102237.84
2022-10-19T11:12:05.662Z,102232.66
2022-10-19T11:14:42.755Z,102238.03
2022-10-19T11:17:18.553Z,102238.91
2022-10-19T11:19:46.381Z,102236.59
2022-10-19T11:22:32.456Z,102237.09
2022-10-19T11:25:19.591Z,102227.88
2022-10-19T11:28:20.657Z,102237.38
2022-10-19T11:31:06.896Z,102225.13
2022-10-19T11:34:00.281Z,102232.19
2022-10-19T11:36:51.741Z,102225.22
2022-10-19T11:40:02.429Z,102221.38
2022-10-19T11:42:53.645Z,102217.94
2022-10-19T11:45:42.726Z,102212.22
2022-10-19T11:48:54.946Z,102216.22
2022-10-19T11:51:39.418Z,102210.72
2022-10-19T11:54:29.507Z,102200.88
2022-10-19T11:57:16.422Z,102205.94
2022-10-19T12:00:13.898Z,102207.28
2022-10-19T12:03:07.798Z,102203.63
2022-10-19T12:05:54.429Z,102204.31
2022-10-19T12:08:58.080Z,102209.34
2022-10-19T12:11:47.441Z,102203.91
2022-10-19T12:14:26.785Z,102205.25
2022-10-19T12:17:00.173Z,102209.94
2022-10-19T12:19:36.054Z,102203.44
2022-10-19T12:22:04.791Z,102200.13
2022-10-19T12:24:33.486Z,102198.28
2022-10-19T12:27:01.429Z,102195.97
2022-10-19T12:29:34.412Z,102204.44
2022-10-19T12:32:03.259Z,102195.44
2022-10-19T12:34:33.484Z,102191.84
2022-10-19T12:37:12.196Z,102192.75
2022-10-19T12:40:17.191Z,102191.56
2022-10-19T12:42:53.012Z,102194.91
2022-10-19T12:45:30.947Z,102188.00
2022-10-19T12:48:14.268Z,102189.47
2022-10-19T12:50:50.867Z,102195.00
2022-10-19T12:53:31.541Z,102191.22
2022-10-19T12:56:20.158Z,102188.38
2022-10-19T12:58:54.628Z,102191.22
2022-10-19T13:01:33.053Z,102186.97
2022-10-19T13:04:12.214Z,102192.66
2022-10-19T13:06:52.099Z,102180.66
2022-10-19T13:09:22.923Z,102187.94
2022-10-19T13:12:19.383Z,102178.81
2022-10-19T13:15:02.124Z,102181.84
2022-10-19T13:17:40.648Z,102173.25
2022-10-19T13:20:16.641Z,102168.56
2022-10-19T13:23:00.455Z,102166.47
2022-10-19T13:25:29.463Z,102161.50
2022-10-19T13:28:06.969Z,102172.94
2022-10-19T13:30:38.214Z,102165.22
2022-10-19T13:33:28.991Z,102159.16
2022-10-19T13:35:59.189Z,102156.94
2022-10-19T13:38:33.471Z,102157.84
2022-10-19T13:41:19.060Z,102154.41
2022-10-19T13:43:55.404Z,102144.94
2022-10-19T13:46:32.793Z,102148.59
2022-10-19T13:49:12.027Z,102151.50
2022-10-19T13:51:49.280Z,102148.19
2022-10-19T13:54:35.770Z,102146.66
2022-10-19T13:57:47.801Z,102144.78
2022-10-19T14:00:22.185Z,102143.13
2022-10-19T14:03:05.520Z,102139.50
2022-10-19T14:05:56.979Z,102143.22
2022-10-19T14:08:53.232Z,102140.66
2022-10-19T14:11:33.260Z,102137.06
2022-10-19T14:14:13.446Z,102132.56
2022-10-19T14:19:48.481Z,102135.03
2022-10-19T14:22:34.014Z,102127.97
2022-10-19T14:25:05.153Z,102131.63
2022-10-19T14:27:33.255Z,102127.41
2022-10-19T14:30:03.812Z,102126.63
2022-10-19T14:32:33.840Z,102119.47
2022-10-19T14:35:06.087Z,102124.06
2022-10-19T14:37:33.687Z,102117.06
2022-10-19T14:40:29.384Z,102113.50
2022-10-19T14:42:57.663Z,102119.84
2022-10-19T14:45:28.456Z,102121.06
2022-10-19T14:48:01.076Z,102113.97
2022-10-19T14:50:39.306Z,102110.56
2022-10-19T14:53:34.350Z,102115.84
2022-10-19T14:56:37.838Z,102110.34
2022-10-19T14:59:20.385Z,102114.78
2022-10-19T15:01:56.125Z,102117.78
2022-10-19T15:04:27.684Z,102111.63
2022-10-19T15:06:55.925Z,102114.25
2022-10-19T15:09:47.709Z,102110.91
2022-10-19T15:12:21.592Z,102106.47
2022-10-19T15:14:49.189Z,102109.19
2022-10-19T15:17:31.061Z,102110.13
2022-10-19T15:20:01.135Z,102108.34
2022-10-19T15:22:32.287Z,102118.13
2022-10-19T15:25:02.316Z,102111.19
2022-10-19T15:27:31.189Z,102113.97
2022-10-19T15:30:27.068Z,102122.22
2022-10-19T15:33:11.433Z,102125.91
2022-10-19T15:35:40.716Z,102112.00
2022-10-19T15:38:10.293Z,102107.72
2022-10-19T15:40:40.132Z,102104.34
2022-10-19T15:43:34.765Z,102108.84
2022-10-19T15:46:06.816Z,102109.84
2022-10-19T15:49:04.448Z,102106.41
2022-10-19T15:51:34.560Z,102105.72
2022-10-19T15:54:06.828Z,102115.38
2022-10-19T15:56:37.739Z,102118.06
2022-10-19T15:59:10.165Z,102123.56
2022-10-19T16:01:37.369Z,102122.88
2022-10-19T16:04:04.748Z,102125.63
2022-10-19T16:06:34.240Z,102130.91
2022-10-19T16:09:02.439Z,102124.09
2022-10-19T16:11:30.284Z,102132.13
2022-10-19T16:13:57.752Z,102127.84
2022-10-19T16:16:30.246Z,102127.28
2022-10-19T16:18:58.111Z,102127.28
2022-10-19T16:21:31.521Z,102136.13
2022-10-19T16:23:58.701Z,102125.66
2022-10-19T16:26:26.514Z,102131.94
2022-10-19T16:28:55.030Z,102137.31
2022-10-19T16:31:22.649Z,102138.22
2022-10-19T16:33:50.041Z,102135.72
2022-10-19T16:36:20.195Z,102135.75
2022-10-19T16:38:47.703Z,102142.03
2022-10-19T16:41:14.944Z,102135.16
2022-10-19T16:43:42.138Z,102143.09
2022-10-19T16:46:09.579Z,102140.53
2022-10-19T16:48:37.864Z,102147.63
2022-10-19T16:51:07.954Z,102145.88
2022-10-19T16:53:36.484Z,102145.09
2022-10-19T16:56:11.181Z,102153.06
2022-10-19T16:58:39.808Z,102157.59
2022-10-19T17:01:12.356Z,102161.16
2022-10-19T17:03:39.719Z,102165.59
2022-10-19T17:06:08.155Z,102167.34
2022-10-19T17:08:53.047Z,102165.66
2022-10-19T17:11:25.500Z,102166.59
2022-10-19T17:13:54.856Z,102169.25
2022-10-19T17:16:22.152Z,102171.91
2022-10-19T17:18:49.517Z,102170.25
2022-10-19T17:21:19.947Z,102171.13
2022-10-19T17:23:47.564Z,102169.41
2022-10-19T17:26:14.843Z,102169.59
2022-10-19T17:28:43.346Z,102176.81
2022-10-19T17:31:13.073Z,102163.63
2022-10-19T17:33:41.348Z,102168.00
2022-10-19T17:36:11.325Z,102173.47
2022-10-19T17:38:39.316Z,102173.56
2022-10-19T17:41:13.770Z,102172.63
2022-10-19T17:43:42.585Z,102178.75
2022-10-19T17:46:11.255Z,102177.91
2022-10-19T17:48:39.480Z,102184.06
2022-10-19T17:51:13.786Z,102174.44
2022-10-19T17:53:40.947Z,102172.72
2022-10-19T17:56:08.622Z,102172.75
2022-10-19T17:58:39.154Z,102174.50
2022-10-19T18:01:07.877Z,102170.13
2022-10-19T18:03:36.195Z,102174.56
2022-10-19T18:06:10.808Z,102182.44
2022-10-19T18:08:43.953Z,102179.84
2022-10-19T18:11:13.635Z,102186.84
2022-10-19T18:13:41.830Z,102183.38
2022-10-19T18:16:15.435Z,102186.91
2022-10-19T18:18:45.740Z,102192.16
2022-10-19T18:21:14.704Z,102190.41
2022-10-19T18:23:42.051Z,102184.25
2022-10-19T18:26:12.286Z,102184.22
2022-10-19T18:28:39.797Z,102192.25
2022-10-19T18:31:15.389Z,102193.16
2022-10-19T18:33:44.592Z,102188.72
2022-10-19T18:36:11.983Z,102178.22
2022-10-19T18:38:39.668Z,102183.50
2022-10-19T18:43:49.970Z,102180.84
2022-10-19T18:46:19.510Z,102182.63
2022-10-19T18:48:46.876Z,102181.75
2022-10-19T18:51:15.478Z,102178.25
2022-10-19T18:53:43.404Z,102174.75
2022-10-19T18:56:12.721Z,102180.00
2022-10-19T18:58:39.831Z,102176.50
2022-10-19T19:01:10.178Z,102173.03
2022-10-19T19:03:38.881Z,102169.53
2022-10-19T19:06:08.991Z,102167.00
2022-10-19T19:08:36.234Z,102163.50
2022-10-19T19:11:11.294Z,102169.66
2022-10-19T19:13:39.148Z,102170.50
2022-10-19T19:16:07.313Z,102169.66
2022-10-19T19:18:34.903Z,102165.31
2022-10-19T19:21:03.403Z,102164.44
2022-10-19T19:23:31.021Z,102164.44
2022-10-19T19:25:58.269Z,102164.44
2022-10-19T19:28:25.669Z,102163.56
2022-10-19T19:30:52.885Z,102169.69
2022-10-19T19:33:20.135Z,102174.06
2022-10-19T19:35:48.165Z,102161.81
2022-10-19T19:38:16.527Z,102167.06
2022-10-19T19:40:45.380Z,102164.44
2022-10-19T19:43:14.367Z,102161.81
2022-10-19T19:45:42.234Z,102160.09
2022-10-19T19:48:10.617Z,102168.84
2022-10-19T19:50:38.532Z,102162.72
2022-10-19T19:53:05.879Z,102168.00
2022-10-19T19:55:38.862Z,102168.88
2022-10-19T19:58:06.757Z,102166.25
2022-10-19T20:00:33.986Z,102169.75
2022-10-19T20:03:01.219Z,102164.53
2022-10-19T20:05:28.530Z,102171.53
2022-10-19T20:07:55.901Z,102168.91
2022-10-19T20:10:23.106Z,102179.41
2022-10-19T20:12:50.323Z,102173.28
2022-10-19T20:15:18.383Z,102173.28
2022-10-19T20:17:45.783Z,102179.38
2022-10-19T20:20:14.547Z,102183.75
2022-10-19T20:22:46.635Z,102182.91
2022-10-19T20:25:17.429Z,102185.50
2022-10-19T20:27:44.635Z,102186.41
2022-10-19T20:30:26.919Z,102185.53
2022-10-19T20:32:54.997Z,102181.16
2022-10-19T20:35:22.216Z,102180.28
2022-10-19T20:37:52.860Z,102190.75
2022-10-19T20:40:20.394Z,102195.13
2022-10-19T20:42:48.321Z,102194.22
2022-10-19T20:45:15.625Z,102192.50
2022-10-19T20:47:43.215Z,102198.63
2022-10-19T20:50:10.502Z,102202.13
2022-10-19T20:52:38.578Z,102199.47
2022-10-19T20:55:06.804Z,102196.00
2022-10-19T20:57:34.041Z,102202.09
2022-10-19T21:00:01.194Z,102195.13
2022-10-19T21:02:28.446Z,102201.22
2022-10-19T21:04:55.614Z,102209.09
2022-10-19T21:07:22.838Z,102205.59
2022-10-19T21:09:50.226Z,102200.34
2022-10-19T21:12:17.394Z,102196.84
2022-10-19T21:14:44.538Z,102189.84
2022-10-19T21:17:11.743Z,102192.47
2022-10-19T21:19:40.382Z,102195.94
2022-10-19T21:22:10.875Z,102192.44
2022-10-19T21:24:43.908Z,102190.72
2022-10-19T21:27:12.069Z,102184.59
2022-10-19T21:29:45.938Z,102184.59
2022-10-19T21:32:15.272Z,102185.44
2022-10-19T21:34:42.935Z,102177.56
2022-10-19T21:37:20.609Z,102182.81
2022-10-19T21:39:48.024Z,102182.78
2022-10-19T21:42:15.275Z,102183.63
2022-10-19T21:44:42.419Z,102181.00
2022-10-19T21:47:09.637Z,102182.75
2022-10-19T21:49:36.771Z,102180.13
2022-10-19T21:52:04.258Z,102176.63
2022-10-19T21:54:31.927Z,102173.16
2022-10-19T21:57:01.401Z,102174.03
2022-10-19T21:59:28.660Z,102174.00
2022-10-19T22:01:56.418Z,102170.53
2022-10-19T22:04:24.917Z,102164.38
2022-10-19T22:06:52.209Z,102157.38
2022-10-19T22:09:21.233Z,102152.09
2022-10-19T22:11:49.133Z,102159.09
2022-10-19T22:14:17.245Z,102152.09
2022-10-19T22:16:46.976Z,102155.56
2022-10-19T22:19:24.650Z,102158.22
2022-10-19T22:21:52.585Z,102151.22
2022-10-19T22:24:32.220Z,102151.22
2022-10-19T22:27:00.527Z,102139.88
2022-10-19T22:29:27.663Z,102140.72
2022-10-19T22:31:54.840Z,102149.41
2022-10-19T22:34:22.238Z,102140.72
2022-10-19T22:36:49.419Z,102147.66
2022-10-19T22:39:16.777Z,102154.63
2022-10-19T22:41:43.981Z,102149.41
2022-10-19T22:44:11.181Z,102145.00
2022-10-19T22:46:38.685Z,102146.75
2022-10-19T22:49:06.030Z,102145.88
2022-10-19T22:51:33.240Z,102142.34
2022-10-19T22:54:00.503Z,102143.19
2022-10-19T22:56:28.002Z,102138.84
2022-10-19T22:59:01.943Z,102138.00
2022-10-19T23:01:29.388Z,102139.72
2022-10-19T23:03:56.758Z,102127.50
2022-10-19T23:06:24.147Z,102128.34
2022-10-19T23:08:51.376Z,102128.34
2022-10-19T23:11:18.599Z,102129.22
2022-10-19T23:13:45.777Z,102124.88
2022-10-19T23:16:13.170Z,102134.47
2022-10-19T23:18:41.261Z,102130.13
2022-10-19T23:21:11.342Z,102132.72
2022-10-19T23:23:39.288Z,102130.97
2022-10-19T23:26:17.560Z,102133.56
2022-10-19T23:28:47.046Z,102146.63
2022-10-19T23:31:15.831Z,102144.00
2022-10-19T23:33:43.606Z,102137.91
2022-10-19T23:36:16.712Z,102141.38
2022-10-19T23:38:45.008Z,102126.50
2022-10-19T23:41:12.522Z,102131.72
2022-10-19T23:43:40.269Z,102135.19
2022-10-19T23:46:07.722Z,102138.63
2022-10-19T23:48:35.507Z,102144.72
2022-10-19T23:51:06.136Z,102140.34
2022-10-19T23:53:37.049Z,102149.91
2022-10-19T23:56:12.629Z,102145.50
2022-10-19T23:58:39.779Z,102142.91
